Time;durP1;ratioP1;P1;durP2;ratioP2;P2;SDS_P1;SDS_P2;PMS_P1;PMS_P2;Temp;Humidity;BMP_temperature;BMP_pressure;BME280_temperature;BME280_humidity;BME280_pressure;Samples;Min_cycle;Max_cycle;Signal;HPM_P1;HPM_P2
2023/10/01 05:16:31;;;;;;;;;;;;;;;;;;1481846;26;19925;-47
2023/10/01 05:19:09;;;;;;;;;;;;;;;;;;5029172;28;19918;-50
2023/10/01 05:21:36;;;;;;;;;;;;;;;;;;5029112;28;19909;-49
2023/10/01 05:24:02;;;;;;;;;;;;;;;;;;5029136;28;19917;-40
2023/10/01 05:26:35;;;;;;;;;;;;;;;;;;5028505;28;19905;-40
2023/10/01 05:29:02;;;;;;;;;;;;;;;;;;5029166;28;20376;-40
2023/10/01 05:31:29;;;;;;;;;;;;;;;;;;5028737;28;20007;-41
2023/10/01 05:33:58;;;;;;;;;;;;;;;;;;5029236;28;19920;-40
2023/10/01 05:36:24;;;;;;;;;;;;;;;;;;5029014;28;20008;-40
2023/10/01 05:38:53;;;;;;;;;;;;;;;;;;5029017;28;19944;-40
2023/10/01 05:41:29;;;;;;;;;;;;;;;;;;5028813;28;19920;-40
2023/10/01 05:43:55;;;;;;;;;;;;;;;;;;5033367;28;19913;-41
2023/10/01 05:46:22;;;;;;;;;;;;;;;;;;5031986;28;20437;-40
2023/10/01 05:48:55;;;;;;;;;;;;;;;;;;5032781;28;19971;-41
2023/10/01 05:51:30;;;;;;;;;;;;;;;;;;5034284;28;19910;-41
2023/10/01 05:53:56;;;;;;;;;;;;;;;;;;5034729;28;19909;-40
2023/10/01 05:56:22;;;;;;;;;;;;;;;;;;5031951;28;20410;-41
2023/10/01 05:58:48;;;;;;;;;;;;;;;;;;5018206;28;19960;-41
2023/10/01 06:01:14;;;;;;;;;;;;;;;;;;5012565;28;20391;-40
2023/10/01 06:03:40;;;;;;;;;;;;;;;;;;5012797;28;19917;-40
2023/10/01 06:06:10;;;;;;;;;;;;;;;;;;5012677;28;19955;-41
2023/10/01 06:08:45;;;;;;;;;;;;;;;;;;5012755;28;20004;-40
2023/10/01 06:11:13;;;;;;;;;;;;;;;;;;5012435;28;19910;-41
2023/10/01 06:13:39;;;;;;;;;;;;;;;;;;5013083;28;19936;-40
2023/10/01 06:16:15;;;;;;;;;;;;;;;;;;5012616;28;20384;-41
2023/10/01 06:18:50;;;;;;;;;;;;;;;;;;5012800;28;20070;-40
2023/10/01 06:21:18;;;;;;;;;;;;;;;;;;5013018;28;19909;-41
2023/10/01 06:23:50;;;;;;;;;;;;;;;;;;5012548;28;19909;-40
2023/10/01 06:26:16;;;;;;;;;;;;;;;;;;5012053;28;20372;-41
2023/10/01 06:28:42;;;;;;;;;;;;;;;;;;5012491;28;19920;-41
2023/10/01 06:31:08;;;;;;;;;;;;;;;;;;4994538;28;19933;-41
2023/10/01 06:33:36;;;;;;;;;;;;;;;;;;5011899;28;19913;-40
2023/10/01 06:36:21;;;;;;;;;;;;;;;;;;5011979;28;20288;-41
2023/10/01 06:38:47;;;;;;;;;;;;;;;;;;5012236;28;19920;-40
2023/10/01 06:41:13;;;;;;;;;;;;;;;;;;5011748;28;19909;-41
2023/10/01 06:43:44;;;;;;;;;;;;;;;;;;5012029;28;20367;-41
2023/10/01 06:46:11;;;;;;;;;;;;;;;;;;5012169;28;19909;-41
2023/10/01 06:48:39;;;;;;;;;;;;;;;;;;5011802;28;19913;-41
2023/10/01 06:51:05;;;;;;;;;;;;;;;;;;5011801;28;19952;-41
2023/10/01 06:53:43;;;;;;;;;;;;;;;;;;5011358;28;20380;-41
2023/10/01 06:56:14;;;;;;;;;;;;;;;;;;5011937;28;20398;-41
2023/10/01 06:58:40;;;;;;;;;;;;;;;;;;5011544;28;19925;-41
2023/10/01 07:01:33;;;;;;;;;;;;;;;;;;5011852;28;19956;-41
2023/10/01 07:03:52;;;;;;;;;;;;;;;;;;5022693;28;20069;-41
2023/10/01 07:06:18;;;;;;;;;;;;;;;;;;5035913;28;19913;-41
2023/10/01 07:08:44;;;;;;;;;;;;;;;;;;5029328;28;19924;-41
2023/10/01 07:11:18;;;;;;;;;;;;;;;;;;5050733;28;19970;-41
2023/10/01 07:13:44;;;;;;;;;;;;;;;;;;5032260;28;19936;-40
2023/10/01 07:16:10;;;;;;;;;;;;;;;;;;5032283;28;19909;-41
2023/10/01 07:18:38;;;;;;;;;;;;;;;;;;5030053;28;20387;-41
2023/10/01 07:21:06;;;;;;;;;;;;;;;;;;5034024;28;20338;-41
2023/10/01 07:23:32;;;;;;;;;;;;;;;;;;5052095;28;19975;-40
2023/10/01 07:26:00;;;;;;;;;;;;;;;;;;5040097;28;19909;-41
2023/10/01 07:28:26;;;;;;;;;;;;;;;;;;5031948;28;20405;-41
2023/10/01 07:30:56;;;;;;;;;;;;;;;;;;5032059;28;19995;-41
2023/10/01 07:33:22;;;;;;;;;;;;;;;;;;5032153;28;19905;-41
2023/10/01 07:35:58;;;;;;;;;;;;;;;;;;5032057;28;20402;-41
2023/10/01 07:38:25;;;;;;;;;;;;;;;;;;5045747;28;19913;-45
2023/10/01 07:40:57;;;;;;;;;;;;;;;;;;5031834;28;19916;-41
2023/10/01 07:43:23;;;;;;;;;;;;;;;;;;5031999;28;19944;-41
2023/10/01 07:45:55;;;;;;;;;;;;;;;;;;5029742;28;19913;-41
2023/10/01 07:48:22;;;;;;;;;;;;;;;;;;5031846;28;19994;-41
2023/10/01 07:50:48;;;;;;;;;;;;;;;;;;5030970;28;19914;-41
2023/10/01 07:53:14;;;;;;;;;;;;;;;;;;5031533;28;20304;-41
2023/10/01 07:55:41;;;;;;;;;;;;;;;;;;5031343;28;19913;-41
2023/10/01 08:01:36;;;;;;;;;;;;;;;;;;5031585;28;19932;-42
2023/10/01 08:03:55;;;;;;;;;;;;;;;;;;5031068;28;19921;-41
2023/10/01 08:06:29;;;;;;;;;;;;;;;;;;5027796;28;19916;-41
2023/10/01 08:08:57;;;;;;;;;;;;;;;;;;5030216;28;20407;-41
2023/10/01 08:14:08;;;;;;;;;;;;;;;;;;5022746;28;20287;-41
2023/10/01 08:16:47;;;;;;;;;;;;;;;;;;5031483;28;20007;-42
2023/10/01 08:19:13;;;;;;;;;;;;;;;;;;5014591;28;19914;-42
2023/10/01 08:21:48;;;;;;;;;;;;;;;;;;5029026;28;19913;-41
2023/10/01 08:24:18;;;;;;;;;;;;;;;;;;5028180;28;19920;-42
2023/10/01 08:26:44;;;;;;;;;;;;;;;;;;5029280;28;20389;-42
2023/10/01 08:29:14;;;;;;;;;;;;;;;;;;5030715;28;20012;-42
2023/10/01 08:34:27;;;;;;;;;;;;;;;;;;5051281;28;19996;-40
2023/10/01 08:36:56;;;;;;;;;;;;;;;;;;5043683;28;19921;-40
2023/10/01 08:39:33;;;;;;;;;;;;;;;;;;5031964;28;20307;-40
2023/10/01 08:41:59;;;;;;;;;;;;;;;;;;5032141;28;19913;-40
2023/10/01 08:44:30;;;;;;;;;;;;;;;;;;5031750;28;19932;-40
2023/10/01 08:46:56;;;;;;;;;;;;;;;;;;5031887;28;19960;-40
2023/10/01 08:49:23;;;;;;;;;;;;;;;;;;5039511;28;19916;-40
2023/10/01 08:51:49;;;;;;;;;;;;;;;;;;5011608;28;19921;-40
2023/10/01 08:54:14;;;;;;;;;;;;;;;;;;5011895;28;19909;-40
2023/10/01 08:56:44;;;;;;;;;;;;;;;;;;5012021;28;20008;-40
2023/10/01 08:59:23;;;;;;;;;;;;;;;;;;5011243;28;19909;-40
2023/10/01 09:01:52;;;;;;;;;;;;;;;;;;5011136;28;20300;-40
2023/10/01 09:04:29;;;;;;;;;;;;;;;;;;5011021;28;19916;-40
2023/10/01 09:07:04;;;;;;;;;;;;;;;;;;5011521;28;19913;-40
2023/10/01 09:09:51;;;;;;;;;;;;;;;;;;5011331;28;19993;-40
2023/10/01 09:12:18;;;;;;;;;;;;;;;;;;5010892;28;19909;-40
2023/10/01 09:14:46;;;;;;;;;;;;;;;;;;5010987;28;19913;-41
2023/10/01 09:17:12;;;;;;;;;;;;;;;;;;5010873;28;19924;-41
2023/10/01 09:19:42;;;;;;;;;;;;;;;;;;5011174;28;19992;-41
2023/10/01 09:22:08;;;;;;;;;;;;;;;;;;5018562;28;19913;-41
2023/10/01 09:24:42;;;;;;;;;;;;;;;;;;5030295;28;19920;-41
2023/10/01 09:27:21;;;;;;;;;;;;;;;;;;5010813;28;19926;-41
2023/10/01 09:29:48;;;;;;;;;;;;;;;;;;4999534;28;20525;-41
2023/10/01 09:32:14;;;;;;;;;;;;;;;;;;5030517;28;19916;-42
2023/10/01 09:37:42;;;;;;;;;;;;;;;;;;5013955;28;19913;-42
2023/10/01 09:42:56;;;;;;;;;;;;;;;;;;5031031;28;19916;-43
2023/10/01 09:45:26;;;;;;;;;;;;;;;;;;5031104;28;19909;-42
2023/10/01 09:47:56;;;;;;;;;;;;;;;;;;5030497;28;20346;-41
2023/10/01 09:50:22;;;;;;;;;;;;;;;;;;5031038;28;19909;-41
2023/10/01 09:52:48;;;;;;;;;;;;;;;;;;5030842;28;19955;-42
2023/10/01 09:55:47;;;;;;;;;;;;;;;;;;5030759;28;19916;-42
2023/10/01 09:58:00;;;;;;;;;;;;;;;;;;5030267;28;19943;-42
2023/10/01 10:00:42;;;;;;;;;;;;;;;;;;5012607;28;19987;-42
2023/10/01 10:03:09;;;;;;;;;;;;;;;;;;5031073;28;19913;-43
2023/10/01 10:05:39;;;;;;;;;;;;;;;;;;5027353;28;20000;-42
2023/10/01 10:08:15;;;;;;;;;;;;;;;;;;5011491;28;19953;-42
2023/10/01 10:10:48;;;;;;;;;;;;;;;;;;4993144;28;20339;-42
2023/10/01 10:13:14;;;;;;;;;;;;;;;;;;5010921;28;20438;-42
2023/10/01 10:15:46;;;;;;;;;;;;;;;;;;5010921;28;20016;-43
2023/10/01 10:18:18;;;;;;;;;;;;;;;;;;5011053;28;19925;-42
2023/10/01 10:20:44;;;;;;;;;;;;;;;;;;5011039;28;19909;-43
2023/10/01 10:23:13;;;;;;;;;;;;;;;;;;5018712;28;20314;-43
2023/10/01 10:25:39;;;;;;;;;;;;;;;;;;5038612;28;19913;-40
2023/10/01 10:28:06;;;;;;;;;;;;;;;;;;5050692;28;19920;-41
2023/10/01 10:30:32;;;;;;;;;;;;;;;;;;5039358;28;19909;-42
2023/10/01 10:33:00;;;;;;;;;;;;;;;;;;5033433;28;20390;-42
2023/10/01 10:35:26;;;;;;;;;;;;;;;;;;5033368;28;19937;-42
2023/10/01 10:37:55;;;;;;;;;;;;;;;;;;5033427;28;19941;-42
2023/10/01 10:42:47;;;;;;;;;;;;;;;;;;5033437;28;19931;-42
2023/10/01 10:47:58;;;;;;;;;;;;;;;;;;5031710;28;19913;-42
2023/10/01 10:50:24;;;;;;;;;;;;;;;;;;5027167;28;19959;-42
2023/10/01 10:52:50;;;;;;;;;;;;;;;;;;5033651;28;19915;-42
2023/10/01 10:55:16;;;;;;;;;;;;;;;;;;5033743;28;19913;-42
2023/10/01 10:57:48;;;;;;;;;;;;;;;;;;5033883;28;19909;-41
2023/10/01 11:00:23;;;;;;;;;;;;;;;;;;5033358;28;19909;-42
2023/10/01 11:02:55;;;;;;;;;;;;;;;;;;5033483;28;19909;-42
2023/10/01 11:05:20;;;;;;;;;;;;;;;;;;5033464;28;19936;-42
2023/10/01 11:07:47;;;;;;;;;;;;;;;;;;5032171;28;19964;-43
2023/10/01 11:10:13;;;;;;;;;;;;;;;;;;5033416;28;19992;-42
2023/10/01 11:12:39;;;;;;;;;;;;;;;;;;5033773;28;20008;-42
2023/10/01 11:15:23;;;;;;;;;;;;;;;;;;5028006;28;20538;-42
2023/10/01 11:17:49;;;;;;;;;;;;;;;;;;5027825;28;19917;-42
2023/10/01 11:20:24;;;;;;;;;;;;;;;;;;5027987;28;19976;-42
2023/10/01 11:22:54;;;;;;;;;;;;;;;;;;5031027;28;20299;-42
2023/10/01 11:25:20;;;;;;;;;;;;;;;;;;5009192;28;19959;-42
2023/10/01 11:27:48;;;;;;;;;;;;;;;;;;5016477;28;19913;-42
2023/10/01 11:30:17;;;;;;;;;;;;;;;;;;5012056;28;19913;-42
2023/10/01 11:33:03;;;;;;;;;;;;;;;;;;5030752;28;19909;-42
2023/10/01 11:35:32;;;;;;;;;;;;;;;;;;5031094;28;19916;-42
2023/10/01 11:37:58;;;;;;;;;;;;;;;;;;5030862;28;19996;-44
2023/10/01 11:41:06;;;;;;;;;;;;;;;;;;5029501;28;20725;-42
2023/10/01 11:43:10;;;;;;;;;;;;;;;;;;5029997;28;20567;-42
2023/10/01 11:45:35;;;;;;;;;;;;;;;;;;5031192;28;19961;-43
2023/10/01 11:48:05;;;;;;;;;;;;;;;;;;5031410;28;19913;-42
2023/10/01 11:50:31;;;;;;;;;;;;;;;;;;5029686;28;19971;-42
2023/10/01 11:52:57;;;;;;;;;;;;;;;;;;5030455;28;20008;-43
2023/10/01 11:55:23;;;;;;;;;;;;;;;;;;5030851;28;19909;-43
2023/10/01 11:57:52;;;;;;;;;;;;;;;;;;5029723;28;20047;-43
2023/10/01 12:00:32;;;;;;;;;;;;;;;;;;5030364;28;19909;-42
2023/10/01 12:02:58;;;;;;;;;;;;;;;;;;5028933;28;19913;-42
2023/10/01 12:05:38;;;;;;;;;;;;;;;;;;5030149;28;20272;-42
2023/10/01 12:08:04;;;;;;;;;;;;;;;;;;5029939;28;19917;-43
2023/10/01 12:10:35;;;;;;;;;;;;;;;;;;5030031;28;19909;-43
2023/10/01 12:13:01;;;;;;;;;;;;;;;;;;5029225;28;19917;-43
2023/10/01 12:18:15;;;;;;;;;;;;;;;;;;5028682;28;19944;-42
2023/10/01 12:20:47;;;;;;;;;;;;;;;;;;5028889;28;19920;-42
2023/10/01 12:23:13;;;;;;;;;;;;;;;;;;5030077;28;20344;-42
2023/10/01 12:25:46;;;;;;;;;;;;;;;;;;5028670;28;19920;-42
2023/10/01 12:28:18;;;;;;;;;;;;;;;;;;5025498;28;19983;-42
2023/10/01 12:30:44;;;;;;;;;;;;;;;;;;5029924;28;19916;-44
2023/10/01 12:33:10;;;;;;;;;;;;;;;;;;5030011;28;19909;-43
2023/10/01 12:35:36;;;;;;;;;;;;;;;;;;5030622;28;19920;-42
2023/10/01 12:38:05;;;;;;;;;;;;;;;;;;5011285;28;19913;-43
2023/10/01 12:40:34;;;;;;;;;;;;;;;;;;5029596;28;19909;-45
2023/10/01 12:43:00;;;;;;;;;;;;;;;;;;5029530;28;19909;-43
2023/10/01 12:45:27;;;;;;;;;;;;;;;;;;5029782;28;19979;-43
2023/10/01 12:47:53;;;;;;;;;;;;;;;;;;5011150;28;20273;-42
2023/10/01 12:50:28;;;;;;;;;;;;;;;;;;5028392;28;19940;-43
2023/10/01 12:53:19;;;;;;;;;;;;;;;;;;5026267;28;19914;-42
2023/10/01 12:55:40;;;;;;;;;;;;;;;;;;5028317;28;20296;-42
2023/10/01 12:58:06;;;;;;;;;;;;;;;;;;5025064;28;20162;-42
2023/10/01 13:00:53;;;;;;;;;;;;;;;;;;5027055;28;19909;-44
2023/10/01 13:03:20;;;;;;;;;;;;;;;;;;5027599;28;20327;-42
2023/10/01 13:05:47;;;;;;;;;;;;;;;;;;5025158;28;19917;-42
2023/10/01 13:08:27;;;;;;;;;;;;;;;;;;5027126;28;20371;-45
2023/10/01 13:10:53;;;;;;;;;;;;;;;;;;5026619;28;19944;-44
2023/10/01 13:13:20;;;;;;;;;;;;;;;;;;5029654;28;20407;-42
2023/10/01 13:15:51;;;;;;;;;;;;;;;;;;5029453;28;20651;-43
2023/10/01 13:18:22;;;;;;;;;;;;;;;;;;5027666;28;20397;-45
2023/10/01 13:23:28;;;;;;;;;;;;;;;;;;5028133;28;19909;-42
2023/10/01 13:26:06;;;;;;;;;;;;;;;;;;5024579;28;19963;-43
2023/10/01 13:28:50;;;;;;;;;;;;;;;;;;5026642;28;19924;-43
2023/10/01 13:34:06;;;;;;;;;;;;;;;;;;5028017;28;19949;-46
2023/10/01 13:36:46;;;;;;;;;;;;;;;;;;5027111;28;19913;-43
2023/10/01 13:39:15;;;;;;;;;;;;;;;;;;5027739;28;20392;-43
2023/10/01 14:08:50;;;;;;;;;;;;;;;;;;5031780;28;19920;-42
2023/10/01 14:11:17;;;;;;;;;;;;;;;;;;5032285;28;20027;-42
2023/10/01 14:13:43;;;;;;;;;;;;;;;;;;5031446;28;19941;-44
2023/10/01 14:16:12;;;;;;;;;;;;;;;;;;5030061;28;19955;-43
2023/10/01 14:18:38;;;;;;;;;;;;;;;;;;5030968;28;19920;-43
2023/10/01 14:21:12;;;;;;;;;;;;;;;;;;5030983;28;19905;-45
2023/10/01 14:23:42;;;;;;;;;;;;;;;;;;5030943;28;19963;-42
2023/10/01 14:26:13;;;;;;;;;;;;;;;;;;5029699;28;20272;-43
2023/10/01 14:28:39;;;;;;;;;;;;;;;;;;5029512;28;20333;-42
2023/10/01 14:31:05;;;;;;;;;;;;;;;;;;5021630;28;19913;-43
2023/10/01 14:33:32;;;;;;;;;;;;;;;;;;5025624;28;20423;-45
2023/10/01 14:36:04;;;;;;;;;;;;;;;;;;5027390;28;20011;-44
2023/10/01 14:38:40;;;;;;;;;;;;;;;;;;5024657;28;20199;-43
2023/10/01 14:41:09;;;;;;;;;;;;;;;;;;5032205;28;20323;-42
2023/10/01 14:43:41;;;;;;;;;;;;;;;;;;5048239;28;19948;-43
2023/10/01 14:46:08;;;;;;;;;;;;;;;;;;5026744;28;19921;-42
2023/10/01 14:48:38;;;;;;;;;;;;;;;;;;5027039;28;19925;-42
2023/10/01 14:51:04;;;;;;;;;;;;;;;;;;5025125;28;20403;-43
2023/10/01 14:53:36;;;;;;;;;;;;;;;;;;5028083;28;19913;-42
2023/10/01 14:56:04;;;;;;;;;;;;;;;;;;5047920;28;20047;-43
2023/10/01 14:58:30;;;;;;;;;;;;;;;;;;5016982;28;20187;-42
2023/10/01 15:00:57;;;;;;;;;;;;;;;;;;5011156;28;19918;-42
2023/10/01 15:03:33;;;;;;;;;;;;;;;;;;5008213;28;19916;-43
2023/10/01 15:05:59;;;;;;;;;;;;;;;;;;5008387;28;20000;-42
2023/10/01 15:08:29;;;;;;;;;;;;;;;;;;5008039;28;20361;-42
2023/10/01 15:10:55;;;;;;;;;;;;;;;;;;5027765;28;19917;-42
2023/10/01 15:13:33;;;;;;;;;;;;;;;;;;5023437;28;20481;-43
2023/10/01 15:16:02;;;;;;;;;;;;;;;;;;5014779;28;19968;-42
2023/10/01 15:18:28;;;;;;;;;;;;;;;;;;5009246;28;19921;-42
2023/10/01 15:20:54;;;;;;;;;;;;;;;;;;5005311;28;19913;-42
2023/10/01 15:23:20;;;;;;;;;;;;;;;;;;5021264;28;19925;-43
2023/10/01 15:25:46;;;;;;;;;;;;;;;;;;5022499;28;19982;-43
2023/10/01 15:28:15;;;;;;;;;;;;;;;;;;5023924;28;19918;-43
2023/10/01 15:30:44;;;;;;;;;;;;;;;;;;5024880;28;19948;-43
2023/10/01 15:33:15;;;;;;;;;;;;;;;;;;5006287;28;19913;-42
2023/10/01 15:35:43;;;;;;;;;;;;;;;;;;5018083;28;20421;-45
2023/10/01 15:38:09;;;;;;;;;;;;;;;;;;5030798;28;19955;-42
2023/10/01 15:40:35;;;;;;;;;;;;;;;;;;5047352;28;19920;-43
2023/10/01 15:43:01;;;;;;;;;;;;;;;;;;5029317;28;20004;-42
2023/10/01 15:45:30;;;;;;;;;;;;;;;;;;5023413;28;20003;-42
2023/10/01 15:47:58;;;;;;;;;;;;;;;;;;5027475;28;19917;-42
2023/10/01 15:50:46;;;;;;;;;;;;;;;;;;5007711;28;19982;-42
2023/10/01 15:53:21;;;;;;;;;;;;;;;;;;5024526;28;19917;-42
2023/10/01 15:55:56;;;;;;;;;;;;;;;;;;5024291;28;20387;-42
2023/10/01 15:58:24;;;;;;;;;;;;;;;;;;5026975;28;20004;-42
2023/10/01 16:00:53;;;;;;;;;;;;;;;;;;5024360;28;20384;-42
2023/10/01 16:03:29;;;;;;;;;;;;;;;;;;5007170;28;19913;-42
2023/10/01 16:05:56;;;;;;;;;;;;;;;;;;5007757;28;20296;-43
2023/10/01 16:08:22;;;;;;;;;;;;;;;;;;5026968;28;19913;-42
2023/10/01 16:10:48;;;;;;;;;;;;;;;;;;5025203;28;19941;-43
2023/10/01 16:13:14;;;;;;;;;;;;;;;;;;5025267;28;19917;-42
2023/10/01 16:15:40;;;;;;;;;;;;;;;;;;5024900;28;19917;-42
2023/10/01 16:18:09;;;;;;;;;;;;;;;;;;5024670;28;19921;-43
2023/10/01 16:20:36;;;;;;;;;;;;;;;;;;5005908;28;19913;-42
2023/10/01 16:23:13;;;;;;;;;;;;;;;;;;5037563;28;20023;-43
2023/10/01 16:25:39;;;;;;;;;;;;;;;;;;5046411;28;19929;-43
2023/10/01 16:28:05;;;;;;;;;;;;;;;;;;5026140;28;19913;-42
2023/10/01 16:30:30;;;;;;;;;;;;;;;;;;5007434;28;19913;-43
2023/10/01 16:32:56;;;;;;;;;;;;;;;;;;5023139;28;19939;-43
2023/10/01 16:35:31;;;;;;;;;;;;;;;;;;5004001;28;19921;-44
2023/10/01 16:37:57;;;;;;;;;;;;;;;;;;5022893;28;19916;-43
2023/10/01 16:40:23;;;;;;;;;;;;;;;;;;5026454;28;19913;-43
2023/10/01 16:42:53;;;;;;;;;;;;;;;;;;5023525;28;19918;-43
2023/10/01 16:45:18;;;;;;;;;;;;;;;;;;5026406;28;19959;-42
2023/10/01 16:47:48;;;;;;;;;;;;;;;;;;5027999;28;20015;-43
2023/10/01 16:50:14;;;;;;;;;;;;;;;;;;5005845;28;19917;-43
2023/10/01 16:52:40;;;;;;;;;;;;;;;;;;5024603;28;19913;-42
2023/10/01 16:55:06;;;;;;;;;;;;;;;;;;5025687;28;19932;-43
2023/10/01 16:57:32;;;;;;;;;;;;;;;;;;5021848;28;19913;-43
2023/10/01 16:59:58;;;;;;;;;;;;;;;;;;5023005;28;19924;-42
2023/10/01 17:02:26;;;;;;;;;;;;;;;;;;5024550;28;19913;-43
2023/10/01 17:04:52;;;;;;;;;;;;;;;;;;5025827;28;20430;-42
2023/10/01 17:07:18;;;;;;;;;;;;;;;;;;5022718;28;20161;-43
2023/10/01 17:09:50;;;;;;;;;;;;;;;;;;5034129;28;19960;-44
2023/10/01 17:12:18;;;;;;;;;;;;;;;;;;5045604;28;19913;-43
2023/10/01 17:14:44;;;;;;;;;;;;;;;;;;5028137;28;19920;-42
2023/10/01 17:17:12;;;;;;;;;;;;;;;;;;5003878;28;19928;-43
2023/10/01 17:19:39;;;;;;;;;;;;;;;;;;5022691;28;19920;-42
2023/10/01 17:22:08;;;;;;;;;;;;;;;;;;5026017;28;19963;-42
2023/10/01 17:24:36;;;;;;;;;;;;;;;;;;5024544;28;19913;-42
2023/10/01 17:27:10;;;;;;;;;;;;;;;;;;5023031;28;21571;-42
2023/10/01 17:29:39;;;;;;;;;;;;;;;;;;5022610;28;19921;-41
2023/10/01 17:32:05;;;;;;;;;;;;;;;;;;5025476;28;19913;-42
2023/10/01 17:34:31;;;;;;;;;;;;;;;;;;5026044;28;19913;-41
2023/10/01 17:37:00;;;;;;;;;;;;;;;;;;5025957;28;19913;-42
2023/10/01 17:39:26;;;;;;;;;;;;;;;;;;5028055;28;20016;-41
2023/10/01 17:41:59;;;;;;;;;;;;;;;;;;5027833;28;19920;-41
2023/10/01 17:44:25;;;;;;;;;;;;;;;;;;5012722;28;19909;-42
2023/10/01 17:46:56;;;;;;;;;;;;;;;;;;5028742;28;20015;-41
2023/10/01 17:49:26;;;;;;;;;;;;;;;;;;5025250;28;20375;-41
2023/10/01 17:51:54;;;;;;;;;;;;;;;;;;5025272;28;19913;-41
2023/10/01 17:54:20;;;;;;;;;;;;;;;;;;5037847;28;19909;-41
2023/10/01 17:56:46;;;;;;;;;;;;;;;;;;5049810;28;19909;-41
2023/10/01 17:59:12;;;;;;;;;;;;;;;;;;5029583;28;19952;-42
2023/10/01 18:01:37;;;;;;;;;;;;;;;;;;5007731;28;19967;-40
2023/10/01 18:04:08;;;;;;;;;;;;;;;;;;5024501;28;19920;-41
2023/10/01 18:06:34;;;;;;;;;;;;;;;;;;5022531;28;19917;-41
2023/10/01 18:09:00;;;;;;;;;;;;;;;;;;5025396;28;19925;-41
2023/10/01 18:11:28;;;;;;;;;;;;;;;;;;5022280;28;20291;-43
2023/10/01 18:13:56;;;;;;;;;;;;;;;;;;5026041;28;19913;-42
2023/10/01 18:16:25;;;;;;;;;;;;;;;;;;5024807;28;20382;-49
2023/10/01 18:18:51;;;;;;;;;;;;;;;;;;5024849;28;19917;-48
2023/10/01 18:21:17;;;;;;;;;;;;;;;;;;5028692;28;19913;-50
2023/10/01 18:23:43;;;;;;;;;;;;;;;;;;5026061;28;19916;-46
2023/10/01 18:26:11;;;;;;;;;;;;;;;;;;5025738;28;19920;-51
2023/10/01 18:28:37;;;;;;;;;;;;;;;;;;5029759;28;20008;-48
2023/10/01 18:31:04;;;;;;;;;;;;;;;;;;5027389;28;20015;-51
2023/10/01 18:33:32;;;;;;;;;;;;;;;;;;5025656;28;19915;-50
2023/10/01 18:35:58;;;;;;;;;;;;;;;;;;5019124;28;20020;-48
2023/10/01 18:38:24;;;;;;;;;;;;;;;;;;5025081;28;19913;-46
2023/10/01 18:40:52;;;;;;;;;;;;;;;;;;5007945;28;20287;-50
2023/10/01 18:43:18;;;;;;;;;;;;;;;;;;5022587;28;19915;-50
2023/10/01 18:45:46;;;;;;;;;;;;;;;;;;5027241;28;20009;-48
2023/10/01 18:48:11;;;;;;;;;;;;;;;;;;5024164;28;19921;-49
2023/10/01 18:50:37;;;;;;;;;;;;;;;;;;5024441;28;20008;-51
2023/10/01 18:53:03;;;;;;;;;;;;;;;;;;5007193;28;19925;-46
2023/10/01 18:55:30;;;;;;;;;;;;;;;;;;5009374;28;19951;-47
2023/10/01 18:57:56;;;;;;;;;;;;;;;;;;5027372;28;19967;-50
2023/10/01 19:00:22;;;;;;;;;;;;;;;;;;5025081;28;19952;-51
2023/10/01 19:02:48;;;;;;;;;;;;;;;;;;5025265;28;19913;-48
2023/10/01 19:05:15;;;;;;;;;;;;;;;;;;5010630;28;20391;-47
2023/10/01 19:07:42;;;;;;;;;;;;;;;;;;5025097;28;20012;-50
2023/10/01 19:10:07;;;;;;;;;;;;;;;;;;5024519;28;20407;-48
2023/10/01 19:12:33;;;;;;;;;;;;;;;;;;5025440;28;20276;-48
2023/10/01 19:14:59;;;;;;;;;;;;;;;;;;5027653;28;20608;-47
2023/10/01 19:17:25;;;;;;;;;;;;;;;;;;5028108;28;19924;-46
2023/10/01 19:19:51;;;;;;;;;;;;;;;;;;5026758;28;20419;-47
2023/10/01 19:22:24;;;;;;;;;;;;;;;;;;5028557;28;19909;-49
2023/10/01 19:24:51;;;;;;;;;;;;;;;;;;5010782;28;19996;-47
2023/10/01 19:27:17;;;;;;;;;;;;;;;;;;5024330;28;19924;-46
2023/10/01 19:29:43;;;;;;;;;;;;;;;;;;5027535;28;19992;-50
2023/10/01 19:32:12;;;;;;;;;;;;;;;;;;5027599;28;19913;-49
2023/10/01 19:34:38;;;;;;;;;;;;;;;;;;5028550;28;19913;-50
2023/10/01 19:37:04;;;;;;;;;;;;;;;;;;5023807;28;19921;-49
2023/10/01 19:39:40;;;;;;;;;;;;;;;;;;5022109;28;20478;-51
2023/10/01 19:42:06;;;;;;;;;;;;;;;;;;5021509;28;20403;-47
2023/10/01 19:44:34;;;;;;;;;;;;;;;;;;5026115;28;20000;-47
2023/10/01 19:47:03;;;;;;;;;;;;;;;;;;5026940;28;21175;-48
2023/10/01 19:49:28;;;;;;;;;;;;;;;;;;5025379;28;19917;-49
2023/10/01 19:51:55;;;;;;;;;;;;;;;;;;5021849;28;19921;-47
2023/10/01 19:54:21;;;;;;;;;;;;;;;;;;5028062;28;19909;-47
2023/10/01 19:56:47;;;;;;;;;;;;;;;;;;5024228;28;19920;-49
2023/10/01 19:59:13;;;;;;;;;;;;;;;;;;5023043;28;20390;-47
2023/10/01 20:01:40;;;;;;;;;;;;;;;;;;5008115;28;20339;-47
2023/10/01 20:04:06;;;;;;;;;;;;;;;;;;5025232;28;19913;-47
2023/10/01 20:06:38;;;;;;;;;;;;;;;;;;5022612;28;20019;-49
2023/10/01 20:09:23;;;;;;;;;;;;;;;;;;5024631;28;19924;-48
2023/10/01 20:11:56;;;;;;;;;;;;;;;;;;5005837;28;20051;-49
2023/10/01 20:14:22;;;;;;;;;;;;;;;;;;5006575;28;19917;-49
2023/10/01 20:16:49;;;;;;;;;;;;;;;;;;5023353;28;19917;-50
2023/10/01 20:19:15;;;;;;;;;;;;;;;;;;5023593;28;20368;-46
2023/10/01 20:21:42;;;;;;;;;;;;;;;;;;5010329;28;19972;-47
2023/10/01 20:24:14;;;;;;;;;;;;;;;;;;5009739;28;20016;-49
2023/10/01 20:26:42;;;;;;;;;;;;;;;;;;5028132;28;19932;-50
2023/10/01 20:29:09;;;;;;;;;;;;;;;;;;5027193;28;20347;-48
2023/10/01 20:31:35;;;;;;;;;;;;;;;;;;5026991;28;19916;-49
2023/10/01 20:34:03;;;;;;;;;;;;;;;;;;5026752;28;19979;-47
2023/10/01 20:36:29;;;;;;;;;;;;;;;;;;5027422;28;19911;-49
2023/10/01 20:38:57;;;;;;;;;;;;;;;;;;5009291;28;19913;-48
2023/10/01 20:41:24;;;;;;;;;;;;;;;;;;5008699;28;19913;-46
2023/10/01 20:43:50;;;;;;;;;;;;;;;;;;5026773;28;20302;-48
2023/10/01 20:46:16;;;;;;;;;;;;;;;;;;5026501;28;20402;-48
2023/10/01 20:48:43;;;;;;;;;;;;;;;;;;5009072;28;19948;-48
2023/10/01 20:51:11;;;;;;;;;;;;;;;;;;5027098;28;19914;-48
2023/10/01 20:53:37;;;;;;;;;;;;;;;;;;5027653;28;20012;-51
2023/10/01 20:56:03;;;;;;;;;;;;;;;;;;5026517;28;20000;-48
2023/10/01 20:58:29;;;;;;;;;;;;;;;;;;5026613;28;19916;-45
2023/10/01 21:00:56;;;;;;;;;;;;;;;;;;5026445;28;19916;-48
2023/10/01 21:03:23;;;;;;;;;;;;;;;;;;5009175;28;20410;-50
2023/10/01 21:05:55;;;;;;;;;;;;;;;;;;5026462;28;20062;-48
2023/10/01 21:08:21;;;;;;;;;;;;;;;;;;5025650;28;19913;-47
2023/10/01 21:10:47;;;;;;;;;;;;;;;;;;5026950;28;20280;-47
2023/10/01 21:13:12;;;;;;;;;;;;;;;;;;5024784;28;19909;-49
2023/10/01 21:15:38;;;;;;;;;;;;;;;;;;5025778;28;20445;-46
2023/10/01 21:18:05;;;;;;;;;;;;;;;;;;5026764;28;20019;-50
2023/10/01 21:20:31;;;;;;;;;;;;;;;;;;5026251;28;20340;-51
2023/10/01 21:22:57;;;;;;;;;;;;;;;;;;5027066;28;20063;-49
2023/10/01 21:25:23;;;;;;;;;;;;;;;;;;5026085;28;19979;-52
2023/10/01 21:27:49;;;;;;;;;;;;;;;;;;5026081;28;20068;-50
2023/10/01 21:30:16;;;;;;;;;;;;;;;;;;5026443;28;19916;-49
2023/10/01 21:32:43;;;;;;;;;;;;;;;;;;5026457;28;20347;-47
2023/10/01 21:35:09;;;;;;;;;;;;;;;;;;5026905;28;19913;-47
2023/10/01 21:37:35;;;;;;;;;;;;;;;;;;5027424;28;19909;-48
2023/10/01 21:40:00;;;;;;;;;;;;;;;;;;5026355;28;19916;-50
2023/10/01 21:42:26;;;;;;;;;;;;;;;;;;5026553;28;20015;-50
2023/10/01 21:44:52;;;;;;;;;;;;;;;;;;5026081;28;19967;-48
2023/10/01 21:47:19;;;;;;;;;;;;;;;;;;5026604;28;19916;-48
2023/10/01 21:49:46;;;;;;;;;;;;;;;;;;5026524;28;20376;-48
2023/10/01 21:52:14;;;;;;;;;;;;;;;;;;5026477;28;19916;-49
2023/10/01 21:54:40;;;;;;;;;;;;;;;;;;5026301;28;20375;-51
2023/10/01 21:57:06;;;;;;;;;;;;;;;;;;5027247;28;19913;-47
2023/10/01 21:59:32;;;;;;;;;;;;;;;;;;5026168;28;19913;-49
2023/10/01 22:02:01;;;;;;;;;;;;;;;;;;5026515;28;19909;-50
2023/10/01 22:04:27;;;;;;;;;;;;;;;;;;5026325;28;19968;-51
2023/10/01 22:06:59;;;;;;;;;;;;;;;;;;5026616;28;19964;-50
2023/10/01 22:09:26;;;;;;;;;;;;;;;;;;5026260;28;19913;-50
2023/10/01 22:11:52;;;;;;;;;;;;;;;;;;5026349;28;19909;-51
2023/10/01 22:14:18;;;;;;;;;;;;;;;;;;5026504;28;19909;-51
2023/10/01 22:16:44;;;;;;;;;;;;;;;;;;5025958;28;19952;-49
2023/10/01 22:19:10;;;;;;;;;;;;;;;;;;5027114;28;19951;-48
2023/10/01 22:21:36;;;;;;;;;;;;;;;;;;5026993;28;19916;-49
2023/10/01 22:24:16;;;;;;;;;;;;;;;;;;5026145;28;19963;-50
2023/10/01 22:26:42;;;;;;;;;;;;;;;;;;5029188;28;19939;-50
2023/10/01 22:29:10;;;;;;;;;;;;;;;;;;5030345;28;19913;-49
2023/10/01 22:31:38;;;;;;;;;;;;;;;;;;5030470;28;19909;-48
2023/10/01 22:34:04;;;;;;;;;;;;;;;;;;5029818;28;19909;-48
2023/10/01 22:36:38;;;;;;;;;;;;;;;;;;5029238;28;19922;-51
2023/10/01 22:39:04;;;;;;;;;;;;;;;;;;5030038;28;19916;-51
2023/10/01 22:41:32;;;;;;;;;;;;;;;;;;5029368;28;19913;-49
2023/10/01 22:44:10;;;;;;;;;;;;;;;;;;5029622;28;19909;-47
2023/10/01 22:46:36;;;;;;;;;;;;;;;;;;5030163;28;20395;-50
2023/10/01 22:49:03;;;;;;;;;;;;;;;;;;5029288;28;19960;-50
2023/10/01 22:51:30;;;;;;;;;;;;;;;;;;5029328;28;19909;-52
2023/10/01 22:53:59;;;;;;;;;;;;;;;;;;5029457;28;20374;-51
2023/10/01 22:56:25;;;;;;;;;;;;;;;;;;5029105;28;19913;-50
2023/10/01 22:58:51;;;;;;;;;;;;;;;;;;5029369;28;19916;-47
